createdAt,value
2019-01-24T00:00:49.466Z,96.50
2019-01-24T00:01:49.435Z,91.60
2019-01-24T00:02:49.429Z,88.80
2019-01-24T00:03:49.416Z,92.70
2019-01-24T00:04:49.416Z,92.40
2019-01-24T00:05:49.400Z,86.20
2019-01-24T00:06:49.400Z,92.30
2019-01-24T00:07:49.381Z,93.70
2019-01-24T00:08:49.371Z,87.90
2019-01-24T00:09:49.356Z,88.90
2019-01-24T00:10:49.349Z,91.30
2019-01-24T00:11:49.333Z,89.00
2019-01-24T00:12:49.379Z,90.60
2019-01-24T00:13:49.314Z,90.10
2019-01-24T00:14:49.304Z,93.90
2019-01-24T00:15:49.295Z,89.30
2019-01-24T00:16:49.288Z,87.60
2019-01-24T00:17:49.274Z,90.20
2019-01-24T00:18:49.281Z,94.80
2019-01-24T00:19:49.254Z,97.90
2019-01-24T00:20:49.244Z,87.80
2019-01-24T00:21:49.272Z,88.50
2019-01-24T00:22:49.232Z,90.00
2019-01-24T00:23:49.229Z,83.30
2019-01-24T00:24:49.219Z,89.20
2019-01-24T00:25:49.195Z,86.70
2019-01-24T00:26:49.181Z,87.40
2019-01-24T00:27:49.172Z,86.50
2019-01-24T00:28:49.166Z,89.70
2019-01-24T00:29:49.154Z,93.20
2019-01-24T00:30:49.152Z,89.70
2019-01-24T00:31:49.130Z,88.40
2019-01-24T00:32:49.120Z,92.30
2019-01-24T00:33:49.114Z,88.90
2019-01-24T00:34:49.108Z,92.70
2019-01-24T00:35:49.088Z,93.80
2019-01-24T00:36:49.091Z,89.30
2019-01-24T00:37:49.058Z,92.80
2019-01-24T00:38:49.059Z,90.00
2019-01-24T00:39:49.045Z,88.00
2019-01-24T00:40:49.042Z,98.40
2019-01-24T00:41:49.023Z,92.00
2019-01-24T00:42:49.038Z,89.80
2019-01-24T00:43:49.004Z,84.00
2019-01-24T00:44:48.996Z,91.60
2019-01-24T00:45:48.981Z,92.90
2019-01-24T00:46:48.978Z,90.50
2019-01-24T00:47:48.962Z,94.60
2019-01-24T00:48:48.969Z,94.80
2019-01-24T00:49:48.943Z,91.70
2019-01-24T00:50:48.937Z,93.40
2019-01-24T00:51:48.923Z,91.60
2019-01-24T00:52:48.915Z,87.20
2019-01-24T00:53:48.904Z,92.00
2019-01-24T00:54:48.930Z,90.40
2019-01-24T00:55:48.881Z,92.90
2019-01-24T00:56:48.866Z,94.20
2019-01-24T00:57:48.856Z,90.80
2019-01-24T00:58:48.847Z,86.40
2019-01-24T00:59:48.834Z,90.50
2019-01-24T01:00:48.837Z,91.60
2019-01-24T01:01:48.811Z,96.80
2019-01-24T01:02:48.804Z,96.00
2019-01-24T01:03:48.809Z,88.30
2019-01-24T01:04:48.791Z,93.10
2019-01-24T01:05:48.779Z,90.40
2019-01-24T01:06:48.792Z,93.40
2019-01-24T01:07:48.757Z,88.30
2019-01-24T01:08:48.747Z,92.30
2019-01-24T01:09:48.731Z,90.40
2019-01-24T01:10:48.724Z,89.90
2019-01-24T01:11:48.712Z,89.00
2019-01-24T01:12:48.717Z,91.10
2019-01-24T01:13:48.702Z,92.40
2019-01-24T01:14:48.676Z,90.20
2019-01-24T01:15:48.679Z,90.30
2019-01-24T01:16:48.657Z,87.40
2019-01-24T01:17:48.647Z,92.10
2019-01-24T01:18:48.666Z,91.90
2019-01-24T01:19:48.630Z,89.80
2019-01-24T01:20:48.615Z,89.00
2019-01-24T01:21:48.612Z,92.80
2019-01-24T01:22:48.597Z,89.50
2019-01-24T01:23:48.586Z,93.30
2019-01-24T01:24:48.608Z,92.30
2019-01-24T01:25:48.557Z,94.40
2019-01-24T01:26:48.554Z,94.50
2019-01-24T01:27:48.538Z,92.50
2019-01-24T01:28:48.549Z,91.00
2019-01-24T01:29:48.522Z,89.40
2019-01-24T01:30:48.534Z,86.30
2019-01-24T01:31:48.497Z,93.70
2019-01-24T01:32:48.495Z,93.20
2019-01-24T01:33:48.493Z,97.30
2019-01-24T01:34:48.464Z,90.20
2019-01-24T01:35:48.473Z,92.20
2019-01-24T01:36:48.474Z,95.10
2019-01-24T01:37:48.439Z,88.30
2019-01-24T01:38:48.429Z,92.50
2019-01-24T01:39:48.424Z,95.50
2019-01-24T01:40:48.406Z,89.30
2019-01-24T01:41:48.397Z,91.70
2019-01-24T01:42:48.411Z,90.30
2019-01-24T01:43:48.378Z,90.30
2019-01-24T01:44:48.369Z,95.10
2019-01-24T01:45:48.368Z,90.20
2019-01-24T01:46:48.342Z,94.00
2019-01-24T01:47:48.340Z,91.00
2019-01-24T01:48:48.340Z,90.20
2019-01-24T01:49:48.317Z,92.80
2019-01-24T01:50:48.302Z,88.60
2019-01-24T01:51:48.294Z,92.60
2019-01-24T01:52:48.284Z,97.70
2019-01-24T01:53:48.276Z,89.20
2019-01-24T01:54:48.300Z,90.60
2019-01-24T01:55:48.251Z,98.10
2019-01-24T01:56:48.238Z,88.80
2019-01-24T01:57:48.238Z,94.10
2019-01-24T01:58:48.220Z,92.00
2019-01-24T01:59:48.209Z,94.50
2019-01-24T02:00:48.226Z,91.00
2019-01-24T02:01:48.190Z,89.80
2019-01-24T02:02:48.181Z,92.70
2019-01-24T02:03:48.171Z,88.70
2019-01-24T02:04:48.152Z,92.60
2019-01-24T02:05:48.146Z,90.00
2019-01-24T02:06:48.152Z,94.60
2019-01-24T02:07:48.146Z,90.20
2019-01-24T02:08:48.113Z,89.40
2019-01-24T02:09:48.101Z,89.80
2019-01-24T02:10:48.094Z,90.10
2019-01-24T02:11:48.088Z,90.60
2019-01-24T02:12:48.097Z,94.50
2019-01-24T02:13:48.066Z,90.60
2019-01-24T02:14:48.052Z,90.70
2019-01-24T02:15:48.047Z,88.40
2019-01-24T02:16:48.047Z,92.40
2019-01-24T02:17:48.018Z,92.60
2019-01-24T02:18:48.027Z,94.40
2019-01-24T02:19:47.998Z,94.90
2019-01-24T02:20:47.989Z,89.60
2019-01-24T02:21:47.973Z,89.70
2019-01-24T02:22:47.964Z,92.50
2019-01-24T02:23:47.951Z,88.50
2019-01-24T02:24:47.986Z,96.50
2019-01-24T02:25:47.932Z,89.50
2019-01-24T02:26:47.929Z,88.20
2019-01-24T02:27:47.916Z,87.10
2019-01-24T02:28:47.907Z,84.90
2019-01-24T02:29:47.892Z,87.10
2019-01-24T02:30:47.897Z,84.90
2019-01-24T02:31:47.875Z,82.40
2019-01-24T02:32:47.866Z,87.70
2019-01-24T02:33:47.849Z,82.20
2019-01-24T02:34:49.756Z,86.50
2019-01-24T02:35:47.830Z,83.20
2019-01-24T02:36:47.833Z,86.10
2019-01-24T02:37:47.864Z,81.60
2019-01-24T02:38:47.794Z,81.80
2019-01-24T02:39:47.787Z,83.00
2019-01-24T02:40:47.776Z,86.60
2019-01-24T02:41:47.781Z,82.40
2019-01-24T02:42:47.788Z,87.50
2019-01-24T02:43:47.749Z,84.60
2019-01-24T02:44:47.743Z,86.70
2019-01-24T02:45:47.749Z,86.10
2019-01-24T02:46:47.717Z,81.00
2019-01-24T02:47:47.703Z,85.30
2019-01-24T02:48:47.707Z,81.30
2019-01-24T02:49:47.679Z,83.00
2019-01-24T02:50:47.674Z,77.40
2019-01-24T02:51:47.657Z,85.00
2019-01-24T02:52:47.650Z,80.40
2019-01-24T02:53:47.639Z,77.30
2019-01-24T02:54:47.672Z,77.80
2019-01-24T02:55:47.619Z,75.50
2019-01-24T02:56:47.634Z,75.70
2019-01-24T02:57:47.607Z,75.00
2019-01-24T02:58:47.586Z,81.60
2019-01-24T02:59:47.574Z,73.00
2019-01-24T03:00:47.591Z,80.80
2019-01-24T03:01:47.554Z,76.00
2019-01-24T03:02:47.553Z,74.30
2019-01-24T03:03:47.535Z,72.30
2019-01-24T03:04:47.522Z,72.30
2019-01-24T03:05:47.507Z,72.80
2019-01-24T03:06:47.524Z,72.60
2019-01-24T03:07:47.498Z,72.70
2019-01-24T03:08:47.494Z,72.60
2019-01-24T03:09:47.472Z,71.10
2019-01-24T03:10:47.459Z,75.30
2019-01-24T03:11:47.450Z,73.20
2019-01-24T03:12:47.456Z,74.70
2019-01-24T03:13:47.434Z,73.30
2019-01-24T03:14:47.434Z,72.30
2019-01-24T03:15:47.410Z,71.50
2019-01-24T03:16:47.398Z,68.10
2019-01-24T03:17:47.389Z,77.50
2019-01-24T03:18:47.395Z,73.20
2019-01-24T03:19:47.373Z,73.60
2019-01-24T03:20:47.373Z,72.60
2019-01-24T03:21:47.345Z,71.90
2019-01-24T03:22:47.343Z,70.80
2019-01-24T03:23:47.328Z,70.60
2019-01-24T03:24:47.352Z,73.70
2019-01-24T03:25:47.303Z,74.50
2019-01-24T03:26:47.291Z,67.60
2019-01-24T03:27:47.285Z,74.70
2019-01-24T03:28:47.266Z,68.30
2019-01-24T03:29:47.261Z,72.10
2019-01-24T03:30:47.269Z,71.40
2019-01-24T03:31:47.248Z,68.50
2019-01-24T03:32:47.240Z,75.20
2019-01-24T03:33:47.223Z,71.40
2019-01-24T03:34:47.208Z,70.50
2019-01-24T03:35:47.194Z,73.00
2019-01-24T03:36:47.198Z,72.30
2019-01-24T03:37:47.199Z,69.70
2019-01-24T03:38:47.163Z,73.70
2019-01-24T03:39:47.161Z,72.20
2019-01-24T03:40:47.150Z,72.70
2019-01-24T03:41:47.131Z,72.60
2019-01-24T03:42:54.188Z,73.60
2019-01-24T03:43:47.111Z,69.50
2019-01-24T03:44:47.107Z,71.30
2019-01-24T03:45:47.089Z,66.80
2019-01-24T03:46:47.081Z,69.40
2019-01-24T03:47:47.070Z,71.30
2019-01-24T03:48:47.076Z,67.00
2019-01-24T03:49:47.049Z,70.00
2019-01-24T03:50:47.033Z,68.90
2019-01-24T03:51:47.028Z,72.60
2019-01-24T03:52:47.018Z,71.70
2019-01-24T03:53:47.001Z,73.30
2019-01-24T03:54:47.012Z,69.90
2019-01-24T03:55:46.988Z,72.30
2019-01-24T03:56:46.973Z,74.00
2019-01-24T03:57:46.961Z,68.30
2019-01-24T03:58:46.960Z,75.00
2019-01-24T03:59:46.947Z,73.00
2019-01-24T04:00:46.956Z,70.60
2019-01-24T04:01:46.923Z,72.60
2019-01-24T04:02:46.911Z,72.30
2019-01-24T04:03:46.905Z,73.40
2019-01-24T04:04:46.887Z,76.30
2019-01-24T04:05:46.884Z,69.60
2019-01-24T04:06:46.889Z,71.50
2019-01-24T04:07:46.916Z,71.00
2019-01-24T04:08:46.872Z,75.10
2019-01-24T04:09:46.833Z,72.20
2019-01-24T04:10:46.826Z,70.00
2019-01-24T04:11:46.815Z,70.00
2019-01-24T04:12:46.827Z,73.50
2019-01-24T04:13:46.794Z,75.10
2019-01-24T04:14:46.785Z,67.90
2019-01-24T04:15:46.775Z,73.80
2019-01-24T04:16:46.766Z,70.90
2019-01-24T04:17:46.753Z,67.30
2019-01-24T04:18:46.766Z,70.50
2019-01-24T04:19:46.733Z,71.60
2019-01-24T04:20:46.721Z,71.90
2019-01-24T04:21:46.714Z,72.90
2019-01-24T04:22:46.701Z,66.60
2019-01-24T04:23:46.692Z,66.80
2019-01-24T04:24:46.699Z,70.90
2019-01-24T04:25:46.668Z,70.50
2019-01-24T04:26:46.753Z,67.90
2019-01-24T04:27:46.656Z,67.90
2019-01-24T04:28:46.637Z,69.40
2019-01-24T04:29:46.632Z,66.30
2019-01-24T04:30:46.664Z,68.10
2019-01-24T04:31:46.608Z,65.60
2019-01-24T04:32:46.602Z,65.50
2019-01-24T04:33:46.585Z,67.50
2019-01-24T04:34:46.576Z,70.60
2019-01-24T04:35:46.563Z,67.80
2019-01-24T04:36:46.567Z,66.50
2019-01-24T04:37:46.553Z,66.20
2019-01-24T04:38:46.540Z,64.80
2019-01-24T04:39:46.532Z,64.00
2019-01-24T04:40:46.515Z,65.10
2019-01-24T04:41:46.505Z,65.40
2019-01-24T04:42:46.522Z,69.60
2019-01-24T04:43:46.486Z,68.30
2019-01-24T04:44:46.469Z,62.40
2019-01-24T04:45:46.466Z,67.60
2019-01-24T04:46:46.448Z,64.30
2019-01-24T04:47:46.441Z,64.50
2019-01-24T04:48:46.446Z,62.90
2019-01-24T04:49:46.425Z,65.80
2019-01-24T04:50:46.406Z,70.60
2019-01-24T04:51:46.400Z,66.70
2019-01-24T04:52:46.388Z,71.20
2019-01-24T04:53:46.377Z,65.70
2019-01-24T04:54:46.391Z,71.20
2019-01-24T04:55:46.360Z,69.50
2019-01-24T04:56:46.351Z,70.50
2019-01-24T04:57:46.333Z,69.10
2019-01-24T04:58:46.325Z,70.30
2019-01-24T04:59:46.315Z,69.60
2019-01-24T05:00:46.323Z,72.80
2019-01-24T05:01:46.293Z,66.70
2019-01-24T05:02:46.287Z,68.40
2019-01-24T05:03:46.274Z,66.10
2019-01-24T05:04:46.264Z,72.30
2019-01-24T05:05:46.249Z,65.90
2019-01-24T05:06:46.262Z,67.60
2019-01-24T05:07:46.232Z,70.40
2019-01-24T05:08:46.228Z,74.00
2019-01-24T05:09:46.212Z,71.40
2019-01-24T05:10:46.199Z,72.80
2019-01-24T05:11:46.191Z,68.80
2019-01-24T05:12:46.212Z,73.10
2019-01-24T05:13:46.254Z,72.80
2019-01-24T05:14:46.175Z,70.50
2019-01-24T05:15:46.192Z,71.70
2019-01-24T05:16:46.140Z,71.60
2019-01-24T05:17:46.126Z,70.20
2019-01-24T05:18:46.158Z,70.20
2019-01-24T05:19:46.120Z,67.80
2019-01-24T05:20:46.100Z,71.50
2019-01-24T05:21:46.089Z,67.30
2019-01-24T05:22:46.075Z,72.90
2019-01-24T05:23:46.062Z,74.70
2019-01-24T05:24:46.075Z,76.30
2019-01-24T05:25:46.056Z,69.90
2019-01-24T05:26:46.038Z,71.20
2019-01-24T05:27:46.026Z,69.00
2019-01-24T05:28:46.015Z,70.60
2019-01-24T05:29:46.018Z,75.40
2019-01-24T05:30:46.004Z,74.80
2019-01-24T05:31:45.987Z,76.30
2019-01-24T05:32:45.973Z,72.20
2019-01-24T05:33:45.963Z,73.10
2019-01-24T05:34:45.947Z,75.80
2019-01-24T05:35:45.941Z,70.90
2019-01-24T05:36:45.946Z,68.50
2019-01-24T05:37:45.921Z,74.40
2019-01-24T05:38:45.909Z,72.20
2019-01-24T05:39:45.899Z,72.70
2019-01-24T05:40:45.892Z,72.50
2019-01-24T05:41:45.880Z,74.60
2019-01-24T05:42:45.881Z,73.90
2019-01-24T05:43:45.859Z,72.40
2019-01-24T05:44:45.850Z,69.30
2019-01-24T05:45:45.836Z,74.90
2019-01-24T05:46:45.826Z,73.60
2019-01-24T05:47:45.813Z,73.00
2019-01-24T05:48:45.822Z,72.10
2019-01-24T05:49:45.803Z,76.90
2019-01-24T05:50:45.781Z,74.70
2019-01-24T05:51:45.775Z,71.30
2019-01-24T05:52:45.766Z,75.80
2019-01-24T05:53:45.763Z,76.00
2019-01-24T05:54:45.766Z,74.80
2019-01-24T05:55:45.734Z,75.00
2019-01-24T05:56:45.723Z,77.90
2019-01-24T05:57:45.711Z,74.80
2019-01-24T05:58:45.701Z,78.50
2019-01-24T05:59:45.693Z,79.80
2019-01-24T06:00:45.699Z,77.00
2019-01-24T06:01:45.667Z,79.60
2019-01-24T06:02:45.658Z,70.70
2019-01-24T06:03:45.657Z,73.90
2019-01-24T06:04:45.635Z,77.00
2019-01-24T06:05:45.630Z,77.70
2019-01-24T06:06:45.638Z,78.60
2019-01-24T06:07:45.609Z,78.10
2019-01-24T06:08:45.593Z,79.80
2019-01-24T06:09:45.590Z,82.00
2019-01-24T06:10:45.578Z,76.80
2019-01-24T06:11:45.571Z,82.40
2019-01-24T06:12:45.577Z,78.30
2019-01-24T06:13:45.542Z,81.10
2019-01-24T06:14:45.530Z,77.00
2019-01-24T06:15:45.530Z,80.30
2019-01-24T06:16:45.511Z,79.40
2019-01-24T06:17:45.498Z,76.40
2019-01-24T06:18:45.504Z,77.60
2019-01-24T06:19:45.485Z,79.90
2019-01-24T06:20:45.471Z,73.10
2019-01-24T06:21:45.463Z,75.60
2019-01-24T06:22:45.452Z,86.30
2019-01-24T06:23:45.440Z,80.40
2019-01-24T06:24:45.455Z,79.90
2019-01-24T06:25:45.418Z,83.10
2019-01-24T06:26:45.411Z,84.80
2019-01-24T06:27:45.400Z,85.40
2019-01-24T06:28:45.389Z,82.50
2019-01-24T06:29:45.379Z,79.60
2019-01-24T06:30:45.384Z,81.40
2019-01-24T06:31:45.357Z,81.80
2019-01-24T06:32:45.344Z,83.00
2019-01-24T06:33:45.339Z,84.40
2019-01-24T06:34:45.331Z,84.50
2019-01-24T06:35:48.883Z,90.80
2019-01-24T06:36:45.318Z,86.60
2019-01-24T06:37:45.294Z,88.70
2019-01-24T06:38:45.281Z,82.80
2019-01-24T06:39:45.280Z,82.50
2019-01-24T06:40:45.265Z,87.00
2019-01-24T06:41:45.251Z,92.10
2019-01-24T06:42:45.262Z,84.10
2019-01-24T06:43:45.229Z,85.30
2019-01-24T06:44:45.226Z,89.30
2019-01-24T06:45:45.210Z,85.60
2019-01-24T06:46:45.200Z,88.90
2019-01-24T06:47:45.191Z,87.90
2019-01-24T06:48:45.195Z,87.30
2019-01-24T06:49:45.162Z,85.80
2019-01-24T06:50:45.156Z,86.00
2019-01-24T06:51:45.149Z,90.30
2019-01-24T06:52:45.135Z,86.80
2019-01-24T06:53:45.127Z,90.50
2019-01-24T06:54:45.133Z,89.90
2019-01-24T06:55:45.107Z,84.80
2019-01-24T06:56:45.091Z,88.30
2019-01-24T06:57:45.084Z,89.90
2019-01-24T06:58:45.070Z,90.30
2019-01-24T06:59:45.058Z,90.50
2019-01-24T07:00:45.067Z,90.40
2019-01-24T07:01:45.038Z,95.80
2019-01-24T07:02:45.038Z,87.70
2019-01-24T07:03:45.016Z,91.40
2019-01-24T07:04:45.015Z,91.80
2019-01-24T07:05:44.994Z,94.00
2019-01-24T07:06:45.011Z,90.80
2019-01-24T07:07:44.981Z,86.50
2019-01-24T07:08:44.970Z,90.70
2019-01-24T07:09:44.955Z,91.30
2019-01-24T07:10:44.952Z,88.20
2019-01-24T07:11:44.942Z,96.10
2019-01-24T07:12:44.936Z,96.90
2019-01-24T07:13:44.920Z,93.30
2019-01-24T07:14:44.932Z,91.20
2019-01-24T07:15:44.894Z,92.70
2019-01-24T07:16:44.882Z,92.80
2019-01-24T07:17:44.875Z,94.70
2019-01-24T07:18:44.878Z,92.90
2019-01-24T07:19:44.850Z,91.30
2019-01-24T07:20:44.850Z,100.50
2019-01-24T07:21:44.834Z,93.30
2019-01-24T07:22:44.821Z,94.30
2019-01-24T07:23:44.811Z,91.30
2019-01-24T07:24:44.815Z,103.40
2019-01-24T07:25:44.794Z,96.60
2019-01-24T07:26:44.776Z,92.30
2019-01-24T07:27:44.767Z,96.00
2019-01-24T07:28:44.760Z,94.00
2019-01-24T07:29:44.750Z,98.40
2019-01-24T07:30:44.751Z,91.00
2019-01-24T07:31:44.725Z,97.60
2019-01-24T07:32:44.716Z,102.80
2019-01-24T07:33:44.703Z,95.20
2019-01-24T07:34:44.692Z,92.10
2019-01-24T07:35:44.683Z,99.40
2019-01-24T07:36:44.693Z,94.90
2019-01-24T07:37:44.663Z,99.30
2019-01-24T07:38:44.660Z,97.30
2019-01-24T07:39:44.641Z,99.20
2019-01-24T07:40:44.634Z,99.30
2019-01-24T07:41:44.622Z,93.00
2019-01-24T07:42:44.625Z,102.40
2019-01-24T07:43:44.605Z,99.30
2019-01-24T07:44:44.621Z,96.30
2019-01-24T07:45:44.588Z,95.40
2019-01-24T07:46:44.567Z,99.90
2019-01-24T07:47:44.560Z,100.30
2019-01-24T07:48:44.564Z,92.90
2019-01-24T07:49:44.532Z,94.90
2019-01-24T07:50:44.526Z,97.00
2019-01-24T07:51:44.516Z,92.60
2019-01-24T07:52:44.510Z,97.50
2019-01-24T07:53:44.496Z,93.50
2019-01-24T07:54:44.500Z,94.80
2019-01-24T07:55:44.472Z,96.50
2019-01-24T07:56:44.460Z,94.60
2019-01-24T07:57:44.457Z,96.10
2019-01-24T07:58:44.447Z,93.50
2019-01-24T07:59:44.428Z,96.80
2019-01-24T08:00:44.440Z,92.20
2019-01-24T08:01:44.411Z,97.70
2019-01-24T08:02:44.402Z,96.20
2019-01-24T08:03:44.425Z,100.70
2019-01-24T08:04:44.383Z,98.00
2019-01-24T08:05:44.370Z,93.80
2019-01-24T08:06:44.379Z,98.10
2019-01-24T08:07:44.354Z,94.70
2019-01-24T08:08:44.342Z,96.00
2019-01-24T08:09:44.328Z,102.00
2019-01-24T08:10:44.319Z,94.50
2019-01-24T08:11:44.310Z,94.90
2019-01-24T08:12:44.316Z,93.20
2019-01-24T08:13:44.290Z,98.50
2019-01-24T08:14:44.276Z,94.70
2019-01-24T08:15:44.273Z,98.80
2019-01-24T08:16:44.257Z,94.50
2019-01-24T08:17:44.253Z,98.60
2019-01-24T08:18:44.256Z,92.70
2019-01-24T08:19:44.222Z,99.80
2019-01-24T08:20:44.209Z,93.20
2019-01-24T08:21:44.202Z,98.60
2019-01-24T08:22:44.194Z,95.20
2019-01-24T08:23:44.180Z,98.20
2019-01-24T08:24:44.187Z,101.00
2019-01-24T08:25:44.157Z,96.80
2019-01-24T08:26:44.151Z,94.80
2019-01-24T08:27:44.161Z,100.60
2019-01-24T08:28:44.132Z,95.40
2019-01-24T08:29:44.119Z,96.30
2019-01-24T08:30:44.149Z,92.10
2019-01-24T08:31:44.100Z,93.50
2019-01-24T08:32:44.090Z,97.40
2019-01-24T08:33:44.074Z,95.60
2019-01-24T08:34:44.067Z,97.80
2019-01-24T08:35:44.054Z,94.10
2019-01-24T08:36:44.064Z,90.10
2019-01-24T08:37:44.032Z,98.20
2019-01-24T08:38:44.034Z,98.00
2019-01-24T08:39:44.017Z,95.20
2019-01-24T08:40:44.003Z,94.00
2019-01-24T08:41:43.993Z,96.10
2019-01-24T08:42:44.000Z,94.90
2019-01-24T08:43:43.978Z,94.60
2019-01-24T08:44:43.964Z,97.80
2019-01-24T08:45:43.950Z,100.30
2019-01-24T08:46:43.942Z,93.60
2019-01-24T08:47:43.931Z,93.10
2019-01-24T08:48:43.936Z,87.80
2019-01-24T08:49:43.915Z,94.70
2019-01-24T08:50:43.910Z,92.70
2019-01-24T08:51:43.892Z,95.00
2019-01-24T08:52:43.882Z,90.40
2019-01-24T08:53:43.872Z,94.20
2019-01-24T08:54:43.876Z,90.50
2019-01-24T08:55:43.858Z,92.90
2019-01-24T08:56:43.881Z,96.00
2019-01-24T08:57:43.831Z,95.70
2019-01-24T08:58:43.817Z,91.80
2019-01-24T08:59:43.805Z,89.00
2019-01-24T09:00:43.809Z,90.30
2019-01-24T09:01:43.792Z,86.30
2019-01-24T09:02:43.775Z,93.00
2019-01-24T09:03:43.767Z,91.20
2019-01-24T09:04:43.750Z,94.00
2019-01-24T09:05:43.744Z,86.90
2019-01-24T09:06:43.749Z,87.10
2019-01-24T09:07:43.731Z,84.80
2019-01-24T09:08:43.721Z,88.60
2019-01-24T09:09:43.696Z,91.80
2019-01-24T09:10:43.691Z,88.00
2019-01-24T09:11:43.686Z,87.20
2019-01-24T09:12:43.686Z,85.60
2019-01-24T09:13:43.660Z,89.90
2019-01-24T09:14:43.650Z,89.20
2019-01-24T09:15:43.637Z,85.40
2019-01-24T09:16:43.625Z,83.80
2019-01-24T09:17:43.615Z,92.10
2019-01-24T09:18:43.625Z,84.30
2019-01-24T09:19:43.602Z,83.40
2019-01-24T09:20:43.586Z,86.80
2019-01-24T09:21:43.573Z,83.50
2019-01-24T09:22:43.567Z,85.70
2019-01-24T09:23:43.555Z,85.20
2019-01-24T09:24:43.558Z,88.50
2019-01-24T09:25:43.535Z,86.50
2019-01-24T09:26:43.525Z,88.60
2019-01-24T09:27:43.514Z,85.90
2019-01-24T09:28:43.506Z,87.60
2019-01-24T09:29:43.493Z,89.10
2019-01-24T09:30:43.500Z,84.90
2019-01-24T09:31:43.481Z,89.10
2019-01-24T09:32:43.456Z,86.50
2019-01-24T09:33:43.450Z,83.80
2019-01-24T09:34:43.436Z,84.40
2019-01-24T09:35:43.429Z,83.00
2019-01-24T09:36:43.438Z,84.80
2019-01-24T09:37:43.418Z,90.00
2019-01-24T09:38:43.394Z,84.80
2019-01-24T09:39:43.424Z,83.70
2019-01-24T09:40:43.373Z,82.00
2019-01-24T09:41:43.370Z,81.60
2019-01-24T09:42:43.364Z,81.00
2019-01-24T09:43:50.382Z,86.90
2019-01-24T09:44:43.335Z,83.80
2019-01-24T09:45:43.322Z,83.70
2019-01-24T09:46:43.313Z,80.80
2019-01-24T09:47:43.304Z,84.90
2019-01-24T09:48:43.794Z,86.30
2019-01-24T09:49:43.281Z,82.30
2019-01-24T09:50:43.265Z,83.10
2019-01-24T09:51:43.265Z,88.20
2019-01-24T09:52:43.259Z,83.90
2019-01-24T09:53:43.239Z,84.80
2019-01-24T09:54:43.251Z,84.80
2019-01-24T09:55:43.237Z,90.90
2019-01-24T09:56:43.210Z,85.60
2019-01-24T09:57:43.208Z,84.80
2019-01-24T09:58:43.188Z,85.00
2019-01-24T09:59:43.188Z,84.20
2019-01-24T10:00:43.183Z,83.00
2019-01-24T10:01:43.159Z,79.20
2019-01-24T10:02:43.147Z,79.40
2019-01-24T10:03:43.137Z,80.30
2019-01-24T10:04:43.124Z,82.80
2019-01-24T10:05:43.115Z,83.00
2019-01-24T10:06:43.124Z,84.40
2019-01-24T10:07:43.105Z,79.40
2019-01-24T10:08:43.089Z,79.00
2019-01-24T10:09:43.086Z,81.80
2019-01-24T10:10:43.060Z,84.80
2019-01-24T10:11:43.108Z,82.90
2019-01-24T10:12:43.061Z,80.10
2019-01-24T10:13:43.028Z,78.40
2019-01-24T10:14:43.023Z,82.90
2019-01-24T10:15:43.009Z,84.00
2019-01-24T10:16:43.003Z,83.40
2019-01-24T10:17:42.990Z,76.90
2019-01-24T10:18:42.990Z,83.00
2019-01-24T10:19:42.968Z,81.80
2019-01-24T10:20:42.961Z,76.70
2019-01-24T10:21:42.942Z,81.40
2019-01-24T10:22:42.933Z,81.40
2019-01-24T10:23:42.923Z,84.10
2019-01-24T10:24:42.935Z,83.30
2019-01-24T10:25:42.903Z,83.80
2019-01-24T10:26:42.934Z,75.60
2019-01-24T10:27:42.884Z,73.70
2019-01-24T10:28:42.868Z,76.20
2019-01-24T10:29:42.865Z,77.20
2019-01-24T10:30:43.399Z,76.90
2019-01-24T10:31:42.840Z,75.40
2019-01-24T10:32:42.831Z,70.60
2019-01-24T10:33:42.836Z,67.30
2019-01-24T10:34:42.815Z,73.50
2019-01-24T10:35:42.814Z,65.90
2019-01-24T10:36:43.187Z,69.90
2019-01-24T10:37:42.779Z,75.60
2019-01-24T10:38:42.779Z,72.40
2019-01-24T10:39:42.764Z,71.00
2019-01-24T10:40:42.747Z,76.70
2019-01-24T10:41:42.737Z,74.60
2019-01-24T10:42:42.740Z,70.70
2019-01-24T10:43:42.715Z,74.00
2019-01-24T10:44:42.705Z,79.60
2019-01-24T10:45:42.690Z,74.30
2019-01-24T10:46:42.682Z,78.00
2019-01-24T10:47:42.674Z,74.20
2019-01-24T10:48:42.678Z,75.30
2019-01-24T10:49:42.652Z,76.80
2019-01-24T10:50:42.655Z,72.90
2019-01-24T10:51:42.630Z,76.90
2019-01-24T10:52:42.625Z,72.40
2019-01-24T10:53:42.607Z,72.80
2019-01-24T10:54:42.621Z,75.40
2019-01-24T10:55:42.595Z,75.70
2019-01-24T10:56:42.594Z,80.50
2019-01-24T10:57:42.569Z,80.40
2019-01-24T10:58:42.556Z,82.70
2019-01-24T10:59:42.553Z,79.80
2019-01-24T11:00:42.595Z,79.10
2019-01-24T11:01:42.518Z,76.80
2019-01-24T11:02:42.524Z,79.60
2019-01-24T11:03:42.505Z,75.50
2019-01-24T11:04:42.504Z,81.70
2019-01-24T11:05:42.501Z,79.80
2019-01-24T11:06:42.486Z,80.30
2019-01-24T11:07:42.467Z,78.60
2019-01-24T11:08:42.448Z,80.10
2019-01-24T11:09:42.442Z,81.40
2019-01-24T11:10:42.432Z,79.90
2019-01-24T11:11:42.419Z,82.80
2019-01-24T11:12:42.443Z,85.10
2019-01-24T11:13:42.403Z,83.90
2019-01-24T11:14:42.402Z,81.10
2019-01-24T11:15:42.381Z,75.70
2019-01-24T11:16:42.372Z,76.60
2019-01-24T11:17:42.361Z,79.60
2019-01-24T11:18:42.361Z,80.10
2019-01-24T11:19:42.333Z,79.30
2019-01-24T11:20:42.328Z,74.80
2019-01-24T11:21:42.313Z,75.60
2019-01-24T11:22:42.300Z,77.70
2019-01-24T11:23:42.310Z,79.10
2019-01-24T11:24:42.300Z,72.90
2019-01-24T11:25:42.284Z,75.90
2019-01-24T11:26:42.264Z,75.30
2019-01-24T11:27:42.246Z,76.40
2019-01-24T11:28:42.238Z,77.20
2019-01-24T11:29:42.232Z,80.50
2019-01-24T11:30:42.241Z,78.10
2019-01-24T11:31:42.216Z,81.20
2019-01-24T11:32:42.200Z,77.30
2019-01-24T11:33:42.185Z,76.20
2019-01-24T11:34:42.175Z,81.20
2019-01-24T11:35:42.174Z,77.80
2019-01-24T11:36:42.181Z,74.80
2019-01-24T11:37:42.153Z,76.60
2019-01-24T11:38:42.136Z,80.00
2019-01-24T11:39:42.126Z,79.00
2019-01-24T11:40:42.123Z,81.50
2019-01-24T11:41:42.104Z,81.40
2019-01-24T11:42:42.121Z,83.70
2019-01-24T11:43:42.086Z,85.80
2019-01-24T11:44:42.074Z,78.70
2019-01-24T11:45:42.064Z,80.90
2019-01-24T11:46:42.088Z,82.00
2019-01-24T11:47:42.044Z,76.70
2019-01-24T11:48:42.048Z,81.20
2019-01-24T11:49:42.025Z,75.40
2019-01-24T11:50:42.013Z,74.70
2019-01-24T11:51:42.000Z,72.60
2019-01-24T11:52:41.986Z,74.70
2019-01-24T11:53:41.981Z,79.40
2019-01-24T11:54:41.987Z,81.40
2019-01-24T11:55:41.965Z,76.50
2019-01-24T11:56:41.952Z,72.40
2019-01-24T11:57:41.936Z,73.30
2019-01-24T11:58:41.930Z,77.20
2019-01-24T11:59:41.930Z,75.20
2019-01-24T12:00:41.923Z,72.20
2019-01-24T12:01:41.904Z,71.80
2019-01-24T12:02:41.891Z,70.50
2019-01-24T12:03:41.874Z,71.60
2019-01-24T12:04:41.861Z,72.00
2019-01-24T12:05:41.862Z,68.50
2019-01-24T12:06:41.871Z,72.30
2019-01-24T12:07:41.842Z,72.40
2019-01-24T12:08:41.826Z,68.70
2019-01-24T12:09:41.816Z,67.70
2019-01-24T12:10:41.804Z,71.80
2019-01-24T12:11:42.564Z,66.90
2019-01-24T12:12:41.801Z,69.40
2019-01-24T12:13:41.787Z,70.70
2019-01-24T12:14:41.759Z,70.00
2019-01-24T12:15:41.749Z,73.70
2019-01-24T12:16:41.740Z,71.00
2019-01-24T12:17:41.727Z,69.30
2019-01-24T12:18:41.747Z,71.20
2019-01-24T12:19:41.708Z,70.10
2019-01-24T12:20:41.698Z,64.10
2019-01-24T12:21:41.689Z,66.90
2019-01-24T12:22:41.675Z,70.20
2019-01-24T12:23:41.671Z,65.30
2019-01-24T12:24:41.672Z,68.40
2019-01-24T12:25:41.649Z,76.00
2019-01-24T12:26:41.640Z,66.80
2019-01-24T12:27:41.627Z,69.00
2019-01-24T12:28:41.614Z,68.70
2019-01-24T12:29:41.604Z,71.60
2019-01-24T12:30:41.614Z,67.50
2019-01-24T12:31:41.589Z,70.10
2019-01-24T12:32:41.575Z,65.70
2019-01-24T12:33:41.560Z,68.40
2019-01-24T12:34:41.559Z,70.70
2019-01-24T12:35:41.547Z,67.50
2019-01-24T12:36:41.554Z,63.70
2019-01-24T12:37:41.547Z,65.80
2019-01-24T12:38:41.518Z,65.90
2019-01-24T12:39:41.502Z,62.50
2019-01-24T12:40:41.490Z,66.30
2019-01-24T12:41:41.489Z,63.90
2019-01-24T12:42:41.502Z,66.60
2019-01-24T12:43:41.463Z,64.50
2019-01-24T12:44:41.447Z,65.80
2019-01-24T12:45:41.438Z,69.80
2019-01-24T12:46:41.434Z,64.20
2019-01-24T12:47:41.425Z,67.80
2019-01-24T12:48:41.426Z,62.20
2019-01-24T12:49:41.406Z,68.10
2019-01-24T12:50:41.390Z,68.10
2019-01-24T12:51:41.377Z,68.10
2019-01-24T12:52:41.380Z,68.50